Time;durP1;ratioP1;P1;durP2;ratioP2;P2;SDS_P1;SDS_P2;PMS_P1;PMS_P2;Temp;Humidity;BMP_temperature;BMP_pressure;BME280_temperature;BME280_humidity;BME280_pressure;Samples;Min_cycle;Max_cycle;Signal;HPM_P1;HPM_P2
2023/06/07 00:00:49;;;;;;;23.83;12.80;;;;;;;;;;4880181;28;20571;-67
2023/06/07 00:03:15;;;;;;;21.88;10.50;;;;;;;;;;4879075;28;20061;-67
2023/06/07 00:05:40;;;;;;;17.30;10.65;;;;;;;;;;4880148;28;20480;-67
2023/06/07 00:08:06;;;;;;;22.67;10.77;;;;;;;;;;4864384;28;20056;-66
2023/06/07 00:10:33;;;;;;;16.73;10.05;;;;;;;;;;4867566;28;20562;-67
2023/06/07 00:12:59;;;;;;;22.58;10.70;;;;;;;;;;4866487;28;20152;-66
2023/06/07 00:15:24;;;;;;;21.67;10.57;;;;;;;;;;4850431;28;20045;-68
2023/06/07 00:17:52;;;;;;;20.58;10.88;;;;;;;;;;4866648;28;20044;-66
2023/06/07 00:20:18;;;;;;;17.92;11.00;;;;;;;;;;4866314;28;20095;-66
2023/06/07 00:22:47;;;;;;;20.13;10.48;;;;;;;;;;4867133;28;20044;-66
2023/06/07 00:25:12;;;;;;;23.48;10.75;;;;;;;;;;4880670;28;20107;-66
2023/06/07 00:27:38;;;;;;;19.63;10.73;;;;;;;;;;4864376;28;22145;-66
2023/06/07 00:30:03;;;;;;;19.05;10.52;;;;;;;;;;4879374;28;20560;-68
2023/06/07 00:32:29;;;;;;;17.85;10.38;;;;;;;;;;4866495;28;20054;-67
2023/06/07 00:34:54;;;;;;;21.98;10.15;;;;;;;;;;4865299;28;20048;-66
2023/06/07 00:37:19;;;;;;;20.40;10.30;;;;;;;;;;4867362;28;20040;-66
2023/06/07 00:39:45;;;;;;;21.27;10.30;;;;;;;;;;4864190;28;20061;-66
2023/06/07 00:42:10;;;;;;;20.00;10.68;;;;;;;;;;4865592;28;20051;-66
2023/06/07 00:44:38;;;;;;;23.90;11.20;;;;;;;;;;4864894;28;20056;-67
2023/06/07 00:47:06;;;;;;;24.85;10.93;;;;;;;;;;4880397;28;20048;-67
2023/06/07 00:49:34;;;;;;;19.35;10.27;;;;;;;;;;4865496;28;20774;-68
2023/06/07 00:51:59;;;;;;;19.75;11.13;;;;;;;;;;4866586;28;20812;-67
2023/06/07 00:54:27;;;;;;;21.17;10.52;;;;;;;;;;4880281;28;20049;-67
2023/06/07 00:56:55;;;;;;;20.17;10.77;;;;;;;;;;4865595;28;20667;-67
2023/06/07 00:59:20;;;;;;;18.48;10.27;;;;;;;;;;4863082;28;20056;-67
2023/06/07 01:01:53;;;;;;;22.35;12.05;;;;;;;;;;4865273;28;20068;-68
2023/06/07 01:04:21;;;;;;;19.00;10.82;;;;;;;;;;4880017;28;20064;-67
2023/06/07 01:06:47;;;;;;;18.98;10.93;;;;;;;;;;4879413;28;20690;-67
2023/06/07 01:09:13;;;;;;;21.30;11.07;;;;;;;;;;4864735;28;20064;-68
2023/06/07 01:11:40;;;;;;;18.65;11.32;;;;;;;;;;4863139;28;22381;-67
2023/06/07 01:14:06;;;;;;;21.85;11.40;;;;;;;;;;4880157;28;20696;-67
2023/06/07 01:16:35;;;;;;;20.73;11.05;;;;;;;;;;4865948;28;20696;-67
2023/06/07 01:19:02;;;;;;;20.25;11.32;;;;;;;;;;4863625;28;21166;-67
2023/06/07 01:21:32;;;;;;;18.98;11.38;;;;;;;;;;4862255;28;20498;-67
2023/06/07 01:23:59;;;;;;;21.63;12.15;;;;;;;;;;4880284;28;20068;-67
2023/06/07 01:26:28;;;;;;;18.75;11.15;;;;;;;;;;4865204;28;20037;-68
2023/06/07 01:28:54;;;;;;;19.13;12.27;;;;;;;;;;4880886;28;20068;-67
2023/06/07 01:31:21;;;;;;;21.35;11.63;;;;;;;;;;4849276;28;20473;-68
2023/06/07 01:33:46;;;;;;;20.52;11.95;;;;;;;;;;4865183;28;20048;-67
2023/06/07 01:36:14;;;;;;;22.77;11.65;;;;;;;;;;4880176;28;20049;-68
2023/06/07 01:38:40;;;;;;;25.30;11.52;;;;;;;;;;4865973;28;20041;-67
2023/06/07 01:41:06;;;;;;;17.42;11.13;;;;;;;;;;4866328;28;20041;-67
2023/06/07 01:43:32;;;;;;;22.40;13.10;;;;;;;;;;4865018;28;20059;-67
2023/06/07 01:45:58;;;;;;;25.48;12.50;;;;;;;;;;4864768;29;20060;-67
2023/06/07 01:48:23;;;;;;;23.77;12.50;;;;;;;;;;4865194;28;20056;-67
2023/06/07 01:50:48;;;;;;;26.25;12.20;;;;;;;;;;4880493;29;20058;-67
2023/06/07 01:53:14;;;;;;;21.48;12.32;;;;;;;;;;4924628;28;20040;-67
2023/06/07 01:55:39;;;;;;;21.65;11.80;;;;;;;;;;4879757;28;20675;-68
2023/06/07 01:58:07;;;;;;;23.13;12.00;;;;;;;;;;4866344;28;20040;-68
2023/06/07 02:00:32;;;;;;;23.38;11.82;;;;;;;;;;4866121;28;20032;-68
2023/06/07 02:03:24;;;;;;;23.63;12.05;;;;;;;;;;4865077;28;20594;-68
2023/06/07 02:05:51;;;;;;;19.43;10.73;;;;;;;;;;4866700;28;20041;-67
2023/06/07 02:08:27;;;;;;;24.80;12.07;;;;;;;;;;4863057;28;20103;-67
2023/06/07 02:10:55;;;;;;;20.77;11.88;;;;;;;;;;4862907;28;20041;-68
2023/06/07 02:13:21;;;;;;;20.77;11.40;;;;;;;;;;4864300;28;20120;-67
2023/06/07 02:15:46;;;;;;;20.08;11.50;;;;;;;;;;4864240;28;20044;-68
2023/06/07 02:18:12;;;;;;;25.52;12.77;;;;;;;;;;4878921;28;20041;-67
2023/06/07 02:20:38;;;;;;;20.92;11.75;;;;;;;;;;4864370;28;20131;-68
2023/06/07 02:23:03;;;;;;;25.80;11.23;;;;;;;;;;4864801;28;20033;-63
2023/06/07 02:25:32;;;;;;;29.13;11.98;;;;;;;;;;4865319;28;20146;-64
2023/06/07 02:28:00;;;;;;;22.63;11.95;;;;;;;;;;4863737;28;20067;-63
2023/06/07 02:30:25;;;;;;;25.38;11.20;;;;;;;;;;4863085;28;20041;-64
2023/06/07 02:32:53;;;;;;;23.30;11.27;;;;;;;;;;4865027;28;20052;-64
2023/06/07 02:35:19;;;;;;;20.75;9.10;;;;;;;;;;4843542;28;20048;-64
2023/06/07 02:37:45;;;;;;;14.20;8.57;;;;;;;;;;4861699;28;20028;-64
2023/06/07 02:40:10;;;;;;;21.13;8.73;;;;;;;;;;4864137;28;20486;-63
2023/06/07 02:42:36;;;;;;;20.35;9.90;;;;;;;;;;4864798;29;20036;-64
2023/06/07 02:45:02;;;;;;;19.60;9.40;;;;;;;;;;4863524;28;20048;-63
2023/06/07 02:47:31;;;;;;;19.55;8.55;;;;;;;;;;4862592;28;20636;-64
2023/06/07 02:49:56;;;;;;;19.33;9.15;;;;;;;;;;4863952;28;20047;-63
2023/06/07 02:52:22;;;;;;;18.73;8.52;;;;;;;;;;4864803;29;20064;-63
2023/06/07 02:54:48;;;;;;;15.07;8.70;;;;;;;;;;4863720;28;20091;-63
2023/06/07 02:57:13;;;;;;;17.27;8.73;;;;;;;;;;4862707;28;20045;-63
2023/06/07 02:59:39;;;;;;;18.90;8.13;;;;;;;;;;4863299;28;20048;-63
2023/06/07 03:02:05;;;;;;;17.95;8.32;;;;;;;;;;4864675;28;20052;-63
2023/06/07 03:04:31;;;;;;;18.40;8.23;;;;;;;;;;4861742;28;20990;-63
2023/06/07 03:07:00;;;;;;;19.45;8.60;;;;;;;;;;4864899;28;20234;-63
2023/06/07 03:09:27;;;;;;;15.60;7.82;;;;;;;;;;4876586;28;21004;-63
2023/06/07 03:11:53;;;;;;;18.73;8.75;;;;;;;;;;4863611;28;20127;-64
2023/06/07 03:14:20;;;;;;;15.43;8.00;;;;;;;;;;4864412;28;20128;-63
2023/06/07 03:16:45;;;;;;;17.20;7.72;;;;;;;;;;4877521;28;20122;-63
2023/06/07 03:19:11;;;;;;;20.50;7.90;;;;;;;;;;4877666;28;20044;-63
2023/06/07 03:21:44;;;;;;;15.13;7.65;;;;;;;;;;4865136;28;20095;-63
2023/06/07 03:24:12;;;;;;;13.75;7.93;;;;;;;;;;4869046;28;20543;-63
2023/06/07 03:26:38;;;;;;;17.63;8.93;;;;;;;;;;4867227;28;20433;-63
2023/06/07 03:29:03;;;;;;;18.42;7.82;;;;;;;;;;4866934;28;20118;-64
2023/06/07 03:31:31;;;;;;;17.40;7.90;;;;;;;;;;4868335;28;20036;-63
2023/06/07 03:33:57;;;;;;;18.70;7.57;;;;;;;;;;4867285;28;20395;-63
2023/06/07 03:36:25;;;;;;;19.50;7.25;;;;;;;;;;4929104;28;20045;-64
2023/06/07 03:38:51;;;;;;;14.00;7.30;;;;;;;;;;4867486;28;20047;-64
2023/06/07 03:41:19;;;;;;;13.90;8.05;;;;;;;;;;4866579;28;20044;-63
2023/06/07 03:43:47;;;;;;;18.33;7.57;;;;;;;;;;4867113;28;20168;-64
2023/06/07 03:46:12;;;;;;;18.17;7.22;;;;;;;;;;4866172;28;20179;-63
2023/06/07 03:48:38;;;;;;;14.40;6.68;;;;;;;;;;4864844;28;20047;-63
2023/06/07 03:51:04;;;;;;;16.33;7.20;;;;;;;;;;4865478;28;20045;-64
2023/06/07 03:53:29;;;;;;;13.98;6.43;;;;;;;;;;4866161;29;20098;-63
2023/06/07 03:55:54;;;;;;;13.50;6.45;;;;;;;;;;4866065;28;20045;-63
2023/06/07 03:58:20;;;;;;;13.60;6.20;;;;;;;;;;4866027;28;20573;-64
2023/06/07 04:00:47;;;;;;;13.30;6.22;;;;;;;;;;4865443;28;20152;-63
2023/06/07 04:03:13;;;;;;;18.30;6.03;;;;;;;;;;4882262;28;20063;-63
2023/06/07 04:05:38;;;;;;;13.25;5.80;;;;;;;;;;4866948;28;20037;-63
2023/06/07 04:08:05;;;;;;;16.63;6.30;;;;;;;;;;4865964;28;20048;-63
2023/06/07 04:10:30;;;;;;;13.88;5.50;;;;;;;;;;4867523;28;20713;-63
2023/06/07 04:12:55;;;;;;;14.52;5.20;;;;;;;;;;4865090;28;20045;-63
2023/06/07 04:15:21;;;;;;;20.58;5.60;;;;;;;;;;4865077;28;20458;-64
2023/06/07 04:17:46;;;;;;;16.38;5.85;;;;;;;;;;4864434;28;20041;-64
2023/06/07 04:20:14;;;;;;;14.30;5.35;;;;;;;;;;4867932;28;20605;-63
2023/06/07 04:22:39;;;;;;;14.55;5.80;;;;;;;;;;4867047;28;20028;-63
2023/06/07 04:25:05;;;;;;;19.73;6.00;;;;;;;;;;4868563;28;20212;-64
2023/06/07 04:27:31;;;;;;;15.85;5.38;;;;;;;;;;4865269;28;21050;-63
2023/06/07 04:29:56;;;;;;;15.60;4.70;;;;;;;;;;4865315;28;20045;-63
2023/06/07 04:32:22;;;;;;;15.38;4.97;;;;;;;;;;4865303;28;20072;-63
2023/06/07 04:34:48;;;;;;;16.23;5.15;;;;;;;;;;4866305;28;20120;-63
2023/06/07 04:37:14;;;;;;;16.33;4.90;;;;;;;;;;4865569;28;20044;-63
2023/06/07 04:39:40;;;;;;;13.75;4.50;;;;;;;;;;4880635;28;20124;-63
2023/06/07 04:42:09;;;;;;;18.20;5.22;;;;;;;;;;4879564;28;20045;-64
2023/06/07 04:44:36;;;;;;;19.27;4.68;;;;;;;;;;4867855;28;21011;-63
2023/06/07 04:47:03;;;;;;;15.15;4.47;;;;;;;;;;4882645;28;20594;-63
2023/06/07 04:49:28;;;;;;;12.18;4.07;;;;;;;;;;4865255;28;20041;-63
2023/06/07 04:51:55;;;;;;;12.77;4.45;;;;;;;;;;4863718;28;20064;-63
2023/06/07 04:54:20;;;;;;;14.60;4.40;;;;;;;;;;4864108;28;20048;-64
2023/06/07 04:56:46;;;;;;;13.90;4.80;;;;;;;;;;4865180;28;20044;-63
2023/06/07 04:59:11;;;;;;;13.13;4.55;;;;;;;;;;4863615;28;20052;-64
2023/06/07 05:01:41;;;;;;;13.30;4.47;;;;;;;;;;4863840;28;20075;-63
2023/06/07 05:04:06;;;;;;;17.48;4.28;;;;;;;;;;4862085;28;20080;-63
2023/06/07 05:06:36;;;;;;;13.32;4.28;;;;;;;;;;4863413;28;20039;-64
2023/06/07 05:09:02;;;;;;;15.15;4.47;;;;;;;;;;4862417;28;20043;-63
2023/06/07 05:11:30;;;;;;;17.60;4.75;;;;;;;;;;4863707;28;20126;-65
2023/06/07 05:13:57;;;;;;;11.88;4.03;;;;;;;;;;4865540;28;20151;-62
2023/06/07 05:16:24;;;;;;;13.93;3.97;;;;;;;;;;4863883;28;20075;-66
2023/06/07 05:18:49;;;;;;;15.90;4.50;;;;;;;;;;4865315;28;20043;-64
2023/06/07 05:21:15;;;;;;;16.10;4.70;;;;;;;;;;4863179;28;20041;-64
2023/06/07 05:23:41;;;;;;;21.17;4.80;;;;;;;;;;4862374;28;20048;-63
2023/06/07 05:26:09;;;;;;;15.52;5.20;;;;;;;;;;4862405;28;20047;-64
2023/06/07 05:28:35;;;;;;;17.90;5.13;;;;;;;;;;4875617;28;20493;-64
2023/06/07 05:31:01;;;;;;;15.10;5.03;;;;;;;;;;4861556;28;20048;-64
2023/06/07 05:33:27;;;;;;;13.73;4.43;;;;;;;;;;4861055;28;20052;-64
2023/06/07 05:35:53;;;;;;;12.98;4.38;;;;;;;;;;4860542;28;20506;-64
2023/06/07 05:38:18;;;;;;;14.82;4.15;;;;;;;;;;4861718;28;20131;-65
2023/06/07 05:40:43;;;;;;;13.63;4.20;;;;;;;;;;4859061;28;20082;-64
2023/06/07 05:43:09;;;;;;;12.93;4.00;;;;;;;;;;4863174;28;20091;-65
2023/06/07 05:45:36;;;;;;;16.55;4.50;;;;;;;;;;4860305;28;20040;-64
2023/06/07 05:48:02;;;;;;;14.13;4.30;;;;;;;;;;4861330;28;20040;-64
2023/06/07 05:50:27;;;;;;;14.68;4.55;;;;;;;;;;4876248;28;20571;-65
2023/06/07 05:52:56;;;;;;;17.88;5.20;;;;;;;;;;4861182;28;20032;-64
2023/06/07 05:55:21;;;;;;;15.18;4.53;;;;;;;;;;4860285;28;20136;-64
2023/06/07 05:57:46;;;;;;;10.60;4.13;;;;;;;;;;4860825;28;20143;-64
2023/06/07 06:00:15;;;;;;;16.17;5.55;;;;;;;;;;4874922;28;20041;-64
2023/06/07 06:02:45;;;;;;;14.35;4.95;;;;;;;;;;4860333;28;20094;-64
2023/06/07 06:05:11;;;;;;;13.77;4.45;;;;;;;;;;4875565;28;20083;-64
2023/06/07 06:07:36;;;;;;;13.65;4.38;;;;;;;;;;4860849;28;20678;-65
2023/06/07 06:10:04;;;;;;;14.30;4.50;;;;;;;;;;4858959;28;20056;-64
2023/06/07 06:12:32;;;;;;;16.27;4.70;;;;;;;;;;4860307;28;20787;-64
2023/06/07 06:14:58;;;;;;;13.43;4.22;;;;;;;;;;4859854;28;20032;-64
2023/06/07 06:17:23;;;;;;;16.00;4.22;;;;;;;;;;4858288;28;20585;-65
2023/06/07 06:19:48;;;;;;;13.75;3.80;;;;;;;;;;4858865;28;20044;-64
2023/06/07 06:22:14;;;;;;;11.15;3.75;;;;;;;;;;4861780;28;20047;-64
2023/06/07 06:24:40;;;;;;;13.70;4.03;;;;;;;;;;4873042;28;20054;-64
2023/06/07 06:27:08;;;;;;;12.65;4.32;;;;;;;;;;4859821;28;20096;-64
2023/06/07 06:29:33;;;;;;;15.25;4.03;;;;;;;;;;4861274;28;20044;-63
2023/06/07 06:31:59;;;;;;;19.02;5.10;;;;;;;;;;4859483;28;20067;-63
2023/06/07 06:34:25;;;;;;;18.63;4.75;;;;;;;;;;4862402;28;20045;-64
2023/06/07 06:36:52;;;;;;;9.85;3.47;;;;;;;;;;4859698;28;20040;-64
2023/06/07 06:39:18;;;;;;;14.48;4.18;;;;;;;;;;4861663;28;20061;-70
2023/06/07 06:41:46;;;;;;;15.68;4.28;;;;;;;;;;4860990;28;20051;-70
2023/06/07 06:44:11;;;;;;;11.15;4.15;;;;;;;;;;4862618;28;20115;-70
2023/06/07 06:46:36;;;;;;;18.52;4.35;;;;;;;;;;4864242;28;22268;-68
2023/06/07 06:49:04;;;;;;;12.25;4.20;;;;;;;;;;4860103;28;20045;-68
2023/06/07 06:51:30;;;;;;;11.95;4.13;;;;;;;;;;4923679;28;20771;-69
2023/06/07 06:53:55;;;;;;;13.15;4.47;;;;;;;;;;4862772;28;21025;-69
2023/06/07 06:56:23;;;;;;;13.23;3.78;;;;;;;;;;4875892;28;20037;-69
2023/06/07 06:58:51;;;;;;;9.73;3.58;;;;;;;;;;4845273;28;21349;-69
2023/06/07 07:01:16;;;;;;;11.77;4.25;;;;;;;;;;4861202;28;20147;-69
2023/06/07 07:03:44;;;;;;;12.32;4.07;;;;;;;;;;4862836;28;20061;-70
2023/06/07 07:06:09;;;;;;;12.57;4.30;;;;;;;;;;4862187;28;20037;-70
2023/06/07 07:08:35;;;;;;;17.00;4.20;;;;;;;;;;4862836;28;20033;-70
2023/06/07 07:11:03;;;;;;;11.82;3.97;;;;;;;;;;4862522;28;20048;-69
2023/06/07 07:13:28;;;;;;;10.32;3.58;;;;;;;;;;4863757;28;20049;-70
2023/06/07 07:15:53;;;;;;;13.90;3.80;;;;;;;;;;4860988;28;20098;-69
2023/06/07 07:18:19;;;;;;;15.82;4.30;;;;;;;;;;4863349;28;20044;-68
2023/06/07 07:20:45;;;;;;;12.60;4.30;;;;;;;;;;4859323;28;20127;-69
2023/06/07 07:23:11;;;;;;;13.57;3.90;;;;;;;;;;4861610;28;20037;-69
2023/06/07 07:25:36;;;;;;;10.40;4.00;;;;;;;;;;4862354;28;20685;-69
2023/06/07 07:28:02;;;;;;;11.98;3.55;;;;;;;;;;4859977;28;20039;-70
2023/06/07 07:30:27;;;;;;;12.18;3.72;;;;;;;;;;4862427;28;20029;-68
2023/06/07 07:32:53;;;;;;;14.60;3.80;;;;;;;;;;4859075;28;20375;-69
2023/06/07 07:35:18;;;;;;;11.43;4.22;;;;;;;;;;4859749;28;20547;-69
2023/06/07 07:37:44;;;;;;;13.05;4.13;;;;;;;;;;4862099;28;20056;-68
2023/06/07 07:40:10;;;;;;;10.05;3.47;;;;;;;;;;4860587;28;20035;-67
2023/06/07 07:42:37;;;;;;;9.98;3.50;;;;;;;;;;4875941;28;20033;-68
2023/06/07 07:45:02;;;;;;;12.90;3.75;;;;;;;;;;4875184;28;20052;-69
2023/06/07 07:47:27;;;;;;;11.77;3.40;;;;;;;;;;4861608;28;20068;-69
2023/06/07 07:49:55;;;;;;;11.38;3.47;;;;;;;;;;4863571;28;20064;-71
2023/06/07 07:52:20;;;;;;;11.40;3.22;;;;;;;;;;4861187;28;20045;-69
2023/06/07 07:54:45;;;;;;;9.73;3.17;;;;;;;;;;4865483;28;20045;-68
2023/06/07 07:57:11;;;;;;;14.35;3.85;;;;;;;;;;4877756;28;20040;-69
2023/06/07 07:59:36;;;;;;;11.18;3.65;;;;;;;;;;4864149;28;20952;-67
2023/06/07 08:02:03;;;;;;;14.38;3.90;;;;;;;;;;4862080;28;20111;-70
2023/06/07 08:04:29;;;;;;;9.70;3.03;;;;;;;;;;4875033;28;20067;-69
2023/06/07 08:06:56;;;;;;;14.57;3.30;;;;;;;;;;4878093;28;20128;-67
2023/06/07 08:09:22;;;;;;;11.57;3.63;;;;;;;;;;4866683;28;20722;-68
2023/06/07 08:11:52;;;;;;;12.25;3.38;;;;;;;;;;4865082;28;20078;-67
2023/06/07 08:14:18;;;;;;;10.60;3.38;;;;;;;;;;4881782;28;20044;-68
2023/06/07 08:16:44;;;;;;;9.63;3.15;;;;;;;;;;4863818;28;20052;-70
2023/06/07 08:19:10;;;;;;;9.63;3.20;;;;;;;;;;4881238;28;20123;-68
2023/06/07 08:21:38;;;;;;;12.60;3.42;;;;;;;;;;4867332;28;20039;-67
2023/06/07 08:24:05;;;;;;;11.73;3.42;;;;;;;;;;4867098;28;20052;-68
2023/06/07 08:26:30;;;;;;;11.80;3.53;;;;;;;;;;4864486;28;20045;-68
2023/06/07 08:28:55;;;;;;;12.48;3.53;;;;;;;;;;4865855;28;20090;-69
2023/06/07 08:31:22;;;;;;;10.35;3.13;;;;;;;;;;4864923;29;20889;-68
2023/06/07 08:33:50;;;;;;;8.27;3.00;;;;;;;;;;4865393;28;20067;-69
2023/06/07 08:36:17;;;;;;;10.38;3.70;;;;;;;;;;4864690;28;20925;-69
2023/06/07 08:38:43;;;;;;;11.23;3.20;;;;;;;;;;4864145;28;20057;-68
2023/06/07 08:41:09;;;;;;;8.68;3.08;;;;;;;;;;4864773;28;20045;-69
2023/06/07 08:43:36;;;;;;;9.25;3.20;;;;;;;;;;4863998;28;20055;-70
2023/06/07 08:46:07;;;;;;;9.80;3.20;;;;;;;;;;4867748;28;20048;-70
2023/06/07 08:48:41;;;;;;;8.13;3.17;;;;;;;;;;4865913;28;20083;-70
2023/06/07 08:51:07;;;;;;;10.02;3.13;;;;;;;;;;4867309;28;20037;-67
2023/06/07 08:53:54;;;;;;;11.68;3.65;;;;;;;;;;4862596;28;20044;-66
2023/06/07 08:56:21;;;;;;;11.07;3.53;;;;;;;;;;4925102;28;20041;-67
2023/06/07 08:58:49;;;;;;;9.43;3.20;;;;;;;;;;4878102;28;20526;-68
2023/06/07 09:01:15;;;;;;;10.80;3.35;;;;;;;;;;4881392;28;20040;-68
2023/06/07 09:03:41;;;;;;;10.65;3.20;;;;;;;;;;4863822;28;20060;-68
2023/06/07 09:06:06;;;;;;;13.95;3.47;;;;;;;;;;4863408;28;20091;-68
2023/06/07 09:08:32;;;;;;;11.02;3.13;;;;;;;;;;4879239;28;22839;-69
2023/06/07 09:10:57;;;;;;;11.70;3.05;;;;;;;;;;4863495;28;20123;-68
2023/06/07 09:13:25;;;;;;;11.60;2.95;;;;;;;;;;4863516;28;20100;-69
2023/06/07 09:15:52;;;;;;;10.07;3.40;;;;;;;;;;4865960;28;20044;-70
2023/06/07 09:18:18;;;;;;;9.98;3.20;;;;;;;;;;4864123;28;20136;-69
2023/06/07 09:20:45;;;;;;;10.07;3.55;;;;;;;;;;4864956;28;20367;-68
2023/06/07 09:23:14;;;;;;;10.40;3.58;;;;;;;;;;4879075;28;20049;-68
2023/06/07 09:25:40;;;;;;;12.60;3.65;;;;;;;;;;4864386;28;20052;-70
2023/06/07 09:28:12;;;;;;;10.82;3.70;;;;;;;;;;4867260;28;20044;-69
2023/06/07 09:30:56;;;;;;;7.55;3.45;;;;;;;;;;4845049;28;20037;-69
2023/06/07 09:33:28;;;;;;;11.88;3.60;;;;;;;;;;4882250;28;20037;-69
2023/06/07 09:36:08;;;;;;;9.90;3.40;;;;;;;;;;4862770;28;20047;-70
2023/06/07 09:38:36;;;;;;;11.48;4.40;;;;;;;;;;4862799;28;20033;-68
2023/06/07 09:41:03;;;;;;;13.10;4.18;;;;;;;;;;4861846;28;20068;-69
2023/06/07 09:43:43;;;;;;;11.07;3.97;;;;;;;;;;4864276;28;20041;-69
2023/06/07 09:46:09;;;;;;;10.35;4.28;;;;;;;;;;4862329;28;20449;-66
2023/06/07 09:48:47;;;;;;;11.50;4.10;;;;;;;;;;4864107;28;20033;-67
2023/06/07 09:51:13;;;;;;;11.63;4.35;;;;;;;;;;4847565;28;20033;-69
2023/06/07 09:53:48;;;;;;;10.13;4.00;;;;;;;;;;4879445;28;22219;-68
2023/06/07 09:56:16;;;;;;;11.98;3.80;;;;;;;;;;4879391;28;20405;-66
2023/06/07 09:58:46;;;;;;;12.13;4.50;;;;;;;;;;4860275;28;20041;-66
2023/06/07 10:01:11;;;;;;;8.13;3.55;;;;;;;;;;4862347;28;20127;-67
2023/06/07 10:03:46;;;;;;;12.20;3.90;;;;;;;;;;4864616;28;20071;-67
2023/06/07 10:06:13;;;;;;;11.68;3.83;;;;;;;;;;4879155;28;20091;-67
2023/06/07 10:08:38;;;;;;;12.75;3.70;;;;;;;;;;4864444;28;21793;-65
2023/06/07 10:11:06;;;;;;;12.45;3.70;;;;;;;;;;4863850;28;22279;-67
2023/06/07 10:13:31;;;;;;;8.18;3.75;;;;;;;;;;4862682;28;20032;-67
2023/06/07 10:15:56;;;;;;;10.07;4.35;;;;;;;;;;4861684;28;20068;-67
2023/06/07 10:18:24;;;;;;;13.00;3.85;;;;;;;;;;4859773;28;21075;-66
2023/06/07 10:20:49;;;;;;;12.55;3.72;;;;;;;;;;4858759;28;20040;-67
2023/06/07 10:23:17;;;;;;;11.55;4.35;;;;;;;;;;4862127;28;20040;-68
2023/06/07 10:26:01;;;;;;;11.18;3.90;;;;;;;;;;4861224;28;20826;-68
2023/06/07 10:28:32;;;;;;;11.25;4.38;;;;;;;;;;4859347;28;20087;-68
2023/06/07 10:31:05;;;;;;;10.05;4.03;;;;;;;;;;4874026;28;20144;-67
2023/06/07 10:33:31;;;;;;;12.40;4.20;;;;;;;;;;4862715;28;20068;-68
2023/06/07 10:42:27;;;;;;;7.82;3.78;;;;;;;;;;4842328;28;20037;-67
2023/06/07 10:44:54;;;;;;;10.50;4.38;;;;;;;;;;4862689;28;20118;-66
2023/06/07 10:47:24;;;;;;;11.50;4.20;;;;;;;;;;4861769;28;20044;-68
2023/06/07 10:49:50;;;;;;;8.05;4.07;;;;;;;;;;4860017;28;20049;-69
2023/06/07 10:52:18;;;;;;;10.57;4.28;;;;;;;;;;4849808;28;20633;-68
2023/06/07 10:54:44;;;;;;;13.68;3.83;;;;;;;;;;4862531;28;20049;-68
2023/06/07 10:57:10;;;;;;;18.20;3.78;;;;;;;;;;4858515;28;20052;-69
2023/06/07 10:59:39;;;;;;;23.60;3.40;;;;;;;;;;4861354;28;20043;-71
2023/06/07 11:02:21;;;;;;;14.65;3.58;;;;;;;;;;4860396;28;20966;-71
2023/06/07 11:04:56;;;;;;;15.02;3.60;;;;;;;;;;4867097;28;20049;-70
2023/06/07 11:07:23;;;;;;;16.13;3.78;;;;;;;;;;4878339;28;20114;-68
2023/06/07 11:10:09;;;;;;;16.73;4.10;;;;;;;;;;4862312;28;20036;-70
2023/06/07 11:12:40;;;;;;;21.13;4.25;;;;;;;;;;4862682;28;20048;-70
2023/06/07 11:15:05;;;;;;;;;;;;;;;;;;4861974;28;20041;-70
2023/06/07 11:18:05;;;;;;;15.77;3.83;;;;;;;;;;4861065;28;19926;-70
2023/06/07 11:20:36;;;;;;;26.70;4.47;;;;;;;;;;4841072;28;20282;-70
2023/06/07 11:23:03;;;;;;;;;;;;;;;;;;4863260;28;20040;-70
2023/06/07 11:25:28;;;;;;;14.20;3.33;;;;;;;;;;4876955;28;21303;-69
2023/06/07 11:27:56;;;;;;;16.55;3.85;;;;;;;;;;4862492;28;20044;-71
2023/06/07 11:30:22;;;;;;;21.60;4.00;;;;;;;;;;4861069;28;20116;-69
2023/06/07 11:32:51;;;;;;;17.90;3.85;;;;;;;;;;4862079;28;20045;-71
2023/06/07 11:35:16;;;;;;;17.05;3.67;;;;;;;;;;4926137;28;20045;-69
2023/06/07 11:37:42;;;;;;;19.02;3.67;;;;;;;;;;4862709;28;20064;-68
2023/06/07 11:40:08;;;;;;;23.38;4.30;;;;;;;;;;4877232;28;20514;-68
2023/06/07 11:42:33;;;;;;;21.00;3.97;;;;;;;;;;4863627;28;20048;-71
2023/06/07 11:45:01;;;;;;;23.15;4.38;;;;;;;;;;4880945;28;20052;-69
2023/06/07 11:47:27;;;;;;;12.82;3.20;;;;;;;;;;4866726;28;20711;-69
2023/06/07 11:49:53;;;;;;;24.23;4.28;;;;;;;;;;4866404;28;20037;-69
2023/06/07 11:52:19;;;;;;;20.88;4.63;;;;;;;;;;4865894;28;20494;-68
2023/06/07 11:54:45;;;;;;;21.02;4.45;;;;;;;;;;4867051;28;20506;-69
2023/06/07 11:57:13;;;;;;;27.02;4.28;;;;;;;;;;4866201;28;20147;-69
2023/06/07 11:59:38;;;;;;;16.02;3.80;;;;;;;;;;4865481;28;20401;-66
2023/06/07 12:02:04;;;;;;;28.58;4.88;;;;;;;;;;4864800;28;20091;-67
2023/06/07 12:04:29;;;;;;;17.77;3.90;;;;;;;;;;4863761;28;20052;-67
2023/06/07 12:06:55;;;;;;;19.55;4.53;;;;;;;;;;4864167;28;20168;-67
2023/06/07 12:09:20;;;;;;;24.15;4.70;;;;;;;;;;4866199;28;20187;-66
2023/06/07 12:11:46;;;;;;;22.10;4.95;;;;;;;;;;4863338;28;22301;-66
2023/06/07 12:14:12;;;;;;;21.13;4.60;;;;;;;;;;4864713;28;20048;-66
2023/06/07 12:16:38;;;;;;;14.27;4.50;;;;;;;;;;4880679;28;20080;-66
2023/06/07 12:19:04;;;;;;;21.65;4.68;;;;;;;;;;4865719;28;20040;-67
2023/06/07 12:21:29;;;;;;;21.95;4.55;;;;;;;;;;4866233;28;20092;-66
2023/06/07 12:23:54;;;;;;;25.63;4.82;;;;;;;;;;4866191;29;20105;-65
2023/06/07 12:26:26;;;;;;;17.08;4.45;;;;;;;;;;4864390;28;20044;-64
2023/06/07 12:28:52;;;;;;;24.48;5.20;;;;;;;;;;4865425;28;20107;-66
2023/06/07 12:31:26;;;;;;;20.65;4.70;;;;;;;;;;4866299;28;20041;-66
2023/06/07 12:34:05;;;;;;;27.08;5.18;;;;;;;;;;4927950;28;20132;-66
2023/06/07 12:36:33;;;;;;;26.65;5.05;;;;;;;;;;4864361;28;20044;-66
2023/06/07 12:39:04;;;;;;;18.48;4.18;;;;;;;;;;4862455;28;20049;-67
2023/06/07 12:41:32;;;;;;;23.77;5.00;;;;;;;;;;4862289;28;20049;-66
2023/06/07 12:43:58;;;;;;;18.70;4.22;;;;;;;;;;4863343;28;20051;-67
2023/06/07 12:46:24;;;;;;;24.00;4.95;;;;;;;;;;4862855;28;20485;-66
2023/06/07 12:48:49;;;;;;;16.05;4.10;;;;;;;;;;4864231;28;20167;-63
2023/06/07 12:51:15;;;;;;;14.88;3.97;;;;;;;;;;4861607;28;20482;-67
2023/06/07 12:53:40;;;;;;;18.10;3.92;;;;;;;;;;4864151;28;22313;-66
2023/06/07 12:56:05;;;;;;;17.90;5.15;;;;;;;;;;4862280;28;20052;-67
2023/06/07 12:58:31;;;;;;;17.98;4.28;;;;;;;;;;4878695;28;20175;-67
2023/06/07 13:00:56;;;;;;;12.70;4.25;;;;;;;;;;4861291;28;20051;-67
2023/06/07 13:03:24;;;;;;;17.75;4.43;;;;;;;;;;4877772;28;20068;-66
2023/06/07 13:05:49;;;;;;;17.77;3.90;;;;;;;;;;4862940;28;21001;-66
2023/06/07 13:08:16;;;;;;;19.02;4.72;;;;;;;;;;4861691;28;20533;-66
2023/06/07 13:10:42;;;;;;;17.83;4.53;;;;;;;;;;4862632;28;20041;-66
2023/06/07 13:13:08;;;;;;;20.92;4.88;;;;;;;;;;4862430;28;20041;-65
2023/06/07 13:15:34;;;;;;;23.55;5.18;;;;;;;;;;4861894;28;22293;-65
2023/06/07 13:17:59;;;;;;;24.20;5.20;;;;;;;;;;4877371;28;20040;-64
2023/06/07 13:20:25;;;;;;;22.23;4.72;;;;;;;;;;4876735;28;20037;-66
2023/06/07 13:22:50;;;;;;;21.05;4.65;;;;;;;;;;4859556;28;20041;-65
2023/06/07 13:25:16;;;;;;;18.23;4.28;;;;;;;;;;4862656;28;20083;-65
2023/06/07 13:27:42;;;;;;;17.35;4.57;;;;;;;;;;4863355;28;20217;-64
2023/06/07 13:30:07;;;;;;;19.83;4.78;;;;;;;;;;4863188;28;20215;-65
2023/06/07 13:32:35;;;;;;;15.40;4.47;;;;;;;;;;4863327;28;20600;-64
2023/06/07 13:35:00;;;;;;;14.98;4.50;;;;;;;;;;4861193;28;20040;-65
2023/06/07 13:37:28;;;;;;;17.60;4.63;;;;;;;;;;4923675;28;20076;-65
2023/06/07 13:39:53;;;;;;;21.30;4.63;;;;;;;;;;4860399;28;20041;-65
2023/06/07 13:42:21;;;;;;;15.93;4.43;;;;;;;;;;4862356;28;20059;-66
2023/06/07 13:44:47;;;;;;;15.50;4.53;;;;;;;;;;4863183;28;20516;-66
2023/06/07 13:47:15;;;;;;;24.67;5.13;;;;;;;;;;4862603;28;20033;-66
2023/06/07 13:49:40;;;;;;;16.25;4.72;;;;;;;;;;4875175;28;20132;-65
2023/06/07 13:52:06;;;;;;;17.95;4.65;;;;;;;;;;4861692;28;20082;-66
2023/06/07 13:54:32;;;;;;;15.40;4.38;;;;;;;;;;4858383;28;20029;-65
2023/06/07 13:56:59;;;;;;;16.02;4.72;;;;;;;;;;4858827;28;20048;-65
2023/06/07 13:59:25;;;;;;;16.63;4.85;;;;;;;;;;4842773;28;20167;-65
2023/06/07 14:01:50;;;;;;;16.77;4.88;;;;;;;;;;4860402;28;20868;-68
2023/06/07 14:04:15;;;;;;;24.58;5.68;;;;;;;;;;4863258;28;20152;-63
2023/06/07 14:06:42;;;;;;;19.30;5.03;;;;;;;;;;4863571;29;20188;-65
2023/06/07 14:09:07;;;;;;;21.02;5.25;;;;;;;;;;4861290;28;20046;-65
2023/06/07 14:11:37;;;;;;;21.83;4.85;;;;;;;;;;4853404;28;20103;-66
2023/06/07 14:14:02;;;;;;;16.55;4.65;;;;;;;;;;4860895;28;20052;-66
2023/06/07 14:16:28;;;;;;;15.57;4.32;;;;;;;;;;4860309;28;20037;-66
2023/06/07 14:18:53;;;;;;;17.67;5.05;;;;;;;;;;4859775;28;20040;-65
2023/06/07 14:21:18;;;;;;;11.75;4.40;;;;;;;;;;4860179;28;20040;-66
2023/06/07 14:23:46;;;;;;;13.93;4.22;;;;;;;;;;4876106;28;20628;-66
2023/06/07 14:26:11;;;;;;;10.60;4.22;;;;;;;;;;4873679;28;20039;-67
2023/06/07 14:28:36;;;;;;;12.75;3.80;;;;;;;;;;4858892;28;20052;-66
2023/06/07 14:31:02;;;;;;;13.90;4.35;;;;;;;;;;4859999;28;21331;-67
2023/06/07 14:33:29;;;;;;;12.02;4.18;;;;;;;;;;4860057;28;20777;-66